CET,Max TemperatureF,Mean TemperatureF,Min TemperatureF,Max Dew PointF,MeanDew PointF,Min DewpointF,Max Humidity, Mean Humidity, Min Humidity, Max Sea Level PressureIn, Mean Sea Level PressureIn, Min Sea Level PressureIn, Max VisibilityMiles, Mean VisibilityMiles, Min VisibilityMiles, Max Wind SpeedMPH, Mean Wind SpeedMPH, Max Gust SpeedMPH,PrecipitationIn, CloudCover, Events, WindDirDegrees
2013-11-1,51,50,48,48,47,45,100,92,76,30.15,29.97,29.65,6,4,1,17,11,30,0.00,6,Rain,188
2013-11-2,60,55,50,57,52,46,100,87,68,29.74,29.65,29.56,6,6,2,20,15,,0.00,6,Rain,223
2013-11-3,53,50,46,46,42,37,87,72,54,29.83,29.73,29.50,6,6,6,23,17,29,0.00,5,Rain,228
2013-11-4,55,48,41,54,46,37,100,86,76,29.59,29.35,29.18,6,6,1,28,19,37,0.00,5,Rain,244
2013-11-5,53,46,39,52,43,36,100,88,76,29.62,29.52,29.39,6,5,2,20,10,26,0.00,6,Rain,217
2013-11-6,60,55,50,55,52,46,100,87,72,29.80,29.72,29.62,6,5,1,20,14,32,0.00,6,Rain,231
2013-11-7,60,56,53,55,54,52,94,86,77,29.86,29.81,29.77,6,6,2,20,16,32,0.00,6,Rain,218
2013-11-8,55,52,48,54,50,43,100,91,71,29.83,29.77,29.68,6,5,2,25,9,22,0.00,6,Rain,201
2013-11-9,50,46,42,46,43,39,93,85,71,29.95,29.85,29.74,6,6,4,22,14,33,0.00,5,Rain,215
2013-11-10,50,44,39,45,39,34,100,82,54,30.33,29.93,29.53,6,6,2,20,11,,0.00,4,Rain,316
2013-11-11,51,42,33,39,36,32,93,78,54,30.42,30.37,30.33,6,5,2,14,6,26,0.00,5,Fog,173
2013-11-12,50,47,44,48,43,37,100,85,71,30.39,30.29,30.24,6,4,1,16,8,20,0.00,6,Rain,175
2013-11-13,50,44,37,46,41,36,100,87,66,30.54,30.45,30.36,6,6,5,13,9,20,0.00,3,,15
2013-11-14,48,42,35,46,39,34,100,89,76,30.39,30.22,30.15,6,5,2,16,7,,0.00,4,Fog-Rain,282
2013-11-15,48,44,41,43,39,37,93,82,71,30.42,30.31,30.24,6,6,4,22,13,31,0.00,5,Rain,7
2013-11-16,41,38,35,37,35,32,100,91,81,30.48,30.41,30.33,6,3,0,10,8,,0.00,6,Fog,28
2013-11-17,42,40,37,37,36,34,93,88,81,30.33,30.20,30.04,5,4,2,8,6,,0.00,7,,51
2013-11-18,42,40,37,39,36,34,93,85,76,30.04,29.89,29.80,6,4,2,8,3,,0.00,7,,343
2013-11-19,44,40,37,41,35,30,93,80,61,29.92,29.83,29.74,6,6,2,17,8,,0.00,6,Rain,311
2013-11-20,42,37,32,37,33,28,93,84,57,29.95,29.75,29.42,6,6,4,23,12,24,0.00,5,Rain,256
2013-11-21,37,36,35,36,34,32,100,91,81,29.71,29.50,29.36,6,4,2,14,8,29,0.00,6,Rain-Snow,53
2013-11-22,41,37,33,36,34,30,93,84,76,29.95,29.83,29.71,6,5,2,20,14,32,0.00,6,,12
2013-11-23,44,42,39,37,36,36,87,81,76,30.15,30.05,29.95,6,6,6,20,15,29,0.00,6,,15
2013-11-24,46,40,33,41,37,32,93,87,81,30.39,30.25,30.15,6,6,5,16,9,26,0.00,6,Rain,10
2013-11-25,44,42,39,37,36,36,87,81,71,30.54,30.49,30.39,6,6,6,12,10,23,0.00,6,,359
2013-11-26,44,40,37,39,37,34,93,87,76,30.63,30.57,30.54,6,6,5,10,7,23,0.00,6,,3
2013-11-27,46,42,35,39,37,32,93,85,66,30.57,30.52,30.51,6,5,4,7,5,,0.00,6,,46
2013-11-28,44,38,33,43,36,28,100,86,70,30.57,30.54,30.51,5,3,0,6,3,,0.00,7,Fog,297
2013-11-29,48,46,44,46,44,43,100,93,82,30.51,30.34,30.15,6,3,0,13,6,,0.00,7,Fog-Rain,271
2013-11-30,48,42,37,41,39,34,93,84,66,30.39,30.21,30.09,6,6,6,13,9,21,0.00,5,Rain,338